Terminal Aerodrome Forecast
Issued by NWS

Home | Current Version | Previous Version | Text Only | Print | Product List | Glossary On
Versions: 1 2 3 4 5 6 7 8 9 10 11 12
000
FTUS45 KFGZ 222340
TAFSEZ
TAF
KSEZ 222340Z 2300/2324 21012G22KT P6SM SCT050 BKN090
      TEMPO 2300/2302 5SM -SHRA BKN030 OVC060
     FM230200 21009KT P6SM BKN035 BKN050
     FM231800 22010G15KT P6SM BKN050=

USA.gov is the U.S. government's official web portal to all federal, state and local government web resources and services.